Time;durP1;ratioP1;P1;durP2;ratioP2;P2;SDS_P1;SDS_P2;PMS_P1;PMS_P2;Temp;Humidity;BMP_temperature;BMP_pressure;BME280_temperature;BME280_humidity;BME280_pressure;Samples;Min_cycle;Max_cycle;Signal;HPM_P1;HPM_P2
2021/07/21 00:00:50;;;;;;;9.13;8.23;;;18.20;99.90;;;;;;6050127;23;20832;-69
2021/07/21 00:03:18;;;;;;;10.03;8.93;;;18.20;99.90;;;;;;6050741;23;20702;-69
2021/07/21 00:05:47;;;;;;;10.63;8.40;;;18.20;99.90;;;;;;6049780;23;20441;-69
2021/07/21 00:08:17;;;;;;;10.17;8.93;;;18.20;99.90;;;;;;6015052;23;20507;-69
2021/07/21 00:10:48;;;;;;;9.67;8.33;;;18.20;99.90;;;;;;6050035;23;20503;-69
2021/07/21 00:13:28;;;;;;;10.10;8.20;;;18.20;99.90;;;;;;6049680;23;20377;-69
2021/07/21 00:16:11;;;;;;;11.50;10.30;;;18.10;99.90;;;;;;6050042;23;20471;-69
2021/07/21 00:18:48;;;;;;;9.53;8.57;;;18.10;99.90;;;;;;6015113;23;20416;-69
2021/07/21 00:21:19;;;;;;;10.97;8.53;;;18.10;99.90;;;;;;6049765;23;20428;-69
2021/07/21 00:23:49;;;;;;;10.83;8.93;;;18.10;99.90;;;;;;6049696;23;20391;-70
2021/07/21 00:26:17;;;;;;;12.13;9.20;;;18.10;99.90;;;;;;6014944;23;20467;-69
2021/07/21 00:28:45;;;;;;;10.33;7.97;;;18.20;99.90;;;;;;6049642;23;20926;-69
2021/07/21 00:31:16;;;;;;;11.33;8.93;;;18.10;99.90;;;;;;6050238;23;20424;-69
2021/07/21 00:33:45;;;;;;;10.90;9.00;;;18.10;99.90;;;;;;6049888;23;20864;-69
2021/07/21 00:36:13;;;;;;;12.47;9.60;;;18.10;99.90;;;;;;6049648;23;20433;-69
2021/07/21 00:38:42;;;;;;;10.70;8.97;;;18.10;99.90;;;;;;6049992;23;20401;-69
2021/07/21 00:41:11;;;;;;;10.70;9.17;;;18.10;99.90;;;;;;6014866;23;20750;-69
2021/07/21 00:43:39;;;;;;;14.37;9.90;;;18.10;99.90;;;;;;6049523;23;20408;-69
2021/07/21 00:46:08;;;;;;;10.10;9.00;;;18.10;99.90;;;;;;6040187;23;20520;-69
2021/07/21 00:48:36;;;;;;;9.43;8.43;;;18.10;99.90;;;;;;6049757;23;20401;-69
2021/07/21 00:51:05;;;;;;;10.27;9.10;;;18.10;99.90;;;;;;6014713;23;20468;-69
2021/07/21 00:53:35;;;;;;;10.67;9.13;;;18.10;99.90;;;;;;6014935;23;20420;-69
2021/07/21 00:56:05;;;;;;;11.37;10.17;;;18.10;99.90;;;;;;6014718;23;20495;-69
2021/07/21 00:58:35;;;;;;;11.00;8.70;;;18.10;99.90;;;;;;6014620;23;20492;-69
2021/07/21 01:01:03;;;;;;;11.10;9.23;;;18.00;99.90;;;;;;6049655;23;20424;-69
2021/07/21 01:03:33;;;;;;;10.60;9.23;;;18.00;99.90;;;;;;6015174;23;20452;-69
2021/07/21 01:06:01;;;;;;;10.77;9.40;;;18.00;99.90;;;;;;6039577;23;20456;-69
2021/07/21 01:08:31;;;;;;;12.60;9.80;;;18.00;99.90;;;;;;6014706;23;20728;-69
2021/07/21 01:11:31;;;;;;;11.57;9.77;;;18.00;99.90;;;;;;6038739;23;20444;-69
2021/07/21 01:14:09;;;;;;;13.50;9.70;;;18.00;99.90;;;;;;6049640;23;20479;-69
2021/07/21 01:16:51;;;;;;;10.73;9.60;;;18.00;99.90;;;;;;6014577;23;20416;-69
2021/07/21 01:19:28;;;;;;;11.17;9.40;;;18.00;99.90;;;;;;6014637;23;20439;-69
2021/07/21 01:22:13;;;;;;;10.23;8.73;;;18.00;99.90;;;;;;6014568;23;20538;-69
2021/07/21 01:24:58;;;;;;;12.47;9.40;;;18.00;99.90;;;;;;6015158;23;20918;-69
2021/07/21 01:27:34;;;;;;;11.50;10.30;;;18.00;99.90;;;;;;6014780;23;20425;-69
2021/07/21 01:30:10;;;;;;;10.63;9.40;;;18.00;99.90;;;;;;6014501;23;20805;-69
2021/07/21 01:32:54;;;;;;;13.03;11.53;;;18.00;99.90;;;;;;6014680;23;20427;-69
2021/07/21 01:35:25;;;;;;;13.20;11.10;;;18.00;99.90;;;;;;6049604;23;20413;-69
2021/07/21 01:37:57;;;;;;;13.00;10.77;;;18.00;99.90;;;;;;6049182;23;20397;-69
2021/07/21 01:40:30;;;;;;;13.57;10.47;;;18.00;99.90;;;;;;6014395;23;20787;-69
2021/07/21 01:43:02;;;;;;;12.03;10.77;;;17.90;99.90;;;;;;6014532;23;20431;-69
2021/07/21 01:45:32;;;;;;;12.47;10.47;;;17.90;99.90;;;;;;6014227;23;20991;-69
2021/07/21 01:48:02;;;;;;;12.53;10.80;;;17.90;99.90;;;;;;6014576;23;20420;-69
2021/07/21 01:50:31;;;;;;;25.67;11.07;;;17.90;99.90;;;;;;6014319;23;20479;-69
2021/07/21 01:53:01;;;;;;;12.32;10.75;;;17.90;99.90;;;;;;6014094;23;20422;-69
2021/07/21 01:55:31;;;;;;;12.10;10.50;;;18.00;99.90;;;;;;6014486;23;20627;-69
2021/07/21 01:58:02;;;;;;;12.20;10.90;;;17.90;99.90;;;;;;6015403;23;20428;-69
2021/07/21 02:00:50;;;;;;;13.70;10.97;;;17.90;99.90;;;;;;6039573;23;20511;-69
2021/07/21 02:03:21;;;;;;;15.35;11.60;;;17.90;99.90;;;;;;6013152;23;20451;-69
2021/07/21 02:05:50;;;;;;;15.53;11.73;;;17.90;99.90;;;;;;6014379;23;20199;-69
2021/07/21 02:08:25;;;;;;;13.83;10.97;;;17.90;99.90;;;;;;6014440;23;20750;-69
2021/07/21 02:11:07;;;;;;;12.37;10.60;;;17.80;99.90;;;;;;6014650;23;20451;-69
2021/07/21 02:13:38;;;;;;;13.97;10.83;;;17.80;99.90;;;;;;6014723;23;20425;-69
2021/07/21 02:16:25;;;;;;;13.90;11.37;;;17.70;99.90;;;;;;6014063;23;20412;-69
2021/07/21 02:18:54;;;;;;;13.57;10.30;;;17.70;99.90;;;;;;6014558;23;20426;-69
2021/07/21 02:21:26;;;;;;;13.80;11.00;;;17.70;99.90;;;;;;6014462;23;20440;-69
2021/07/21 02:23:55;;;;;;;14.40;10.47;;;17.60;99.90;;;;;;6014639;23;20428;-69
2021/07/21 02:26:42;;;;;;;13.50;10.90;;;17.60;99.90;;;;;;6039764;23;20460;-69
2021/07/21 02:29:14;;;;;;;14.10;11.63;;;17.60;99.90;;;;;;6015061;23;20416;-69
2021/07/21 02:32:04;;;;;;;15.10;10.47;;;17.50;99.90;;;;;;6049223;23;20424;-69
2021/07/21 02:34:33;;;;;;;16.90;11.73;;;17.50;99.90;;;;;;6014531;23;20970;-69
2021/07/21 02:37:04;;;;;;;14.03;11.07;;;17.50;99.90;;;;;;6014540;23;20412;-69
2021/07/21 02:39:43;;;;;;;14.63;10.97;;;17.40;99.90;;;;;;6016447;23;20422;-69
2021/07/21 02:42:12;;;;;;;15.30;12.57;;;17.40;99.90;;;;;;6050475;23;20967;-69
2021/07/21 02:44:47;;;;;;;15.93;11.13;;;17.40;99.90;;;;;;6016389;23;20416;-69
2021/07/21 02:47:16;;;;;;;15.90;12.27;;;17.30;99.90;;;;;;6016557;23;20468;-69
2021/07/21 02:49:48;;;;;;;14.40;12.23;;;17.30;99.90;;;;;;6015798;23;20407;-69
2021/07/21 02:52:21;;;;;;;15.30;12.50;;;17.30;99.90;;;;;;6015755;23;20511;-69
2021/07/21 02:55:00;;;;;;;15.70;12.90;;;17.30;99.90;;;;;;6050632;23;20399;-69
2021/07/21 02:57:35;;;;;;;19.23;13.07;;;17.20;99.90;;;;;;6015897;23;20411;-69
2021/07/21 03:00:11;;;;;;;15.37;12.20;;;17.20;99.90;;;;;;6017050;23;20634;-69
2021/07/21 03:02:41;;;;;;;17.53;13.43;;;17.20;99.90;;;;;;6051177;23;20459;-69
2021/07/21 03:05:14;;;;;;;16.50;12.60;;;17.10;99.90;;;;;;6016049;23;20454;-69
2021/07/21 03:07:57;;;;;;;17.93;13.73;;;17.10;99.90;;;;;;6015883;23;20195;-69
2021/07/21 03:10:28;;;;;;;18.13;14.13;;;17.10;99.90;;;;;;6015678;23;20445;-70
2021/07/21 03:13:09;;;;;;;15.27;13.70;;;17.00;99.90;;;;;;6016252;23;20432;-70
2021/07/21 03:15:49;;;;;;;16.33;13.30;;;17.00;99.90;;;;;;6014835;23;20450;-69
2021/07/21 03:18:22;;;;;;;14.87;12.57;;;17.10;99.90;;;;;;6015815;23;20485;-69
2021/07/21 03:20:51;;;;;;;16.00;12.60;;;17.10;99.90;;;;;;6050358;23;20428;-69
2021/07/21 03:23:26;;;;;;;16.73;13.37;;;17.00;99.90;;;;;;6016017;23;20425;-69
2021/07/21 03:26:13;;;;;;;15.90;12.67;;;16.90;99.90;;;;;;6040734;23;20891;-69
2021/07/21 03:28:44;;;;;;;17.87;12.60;;;16.90;99.90;;;;;;6015835;23;20412;-69
2021/07/21 03:31:18;;;;;;;18.23;14.30;;;16.90;99.90;;;;;;6015985;23;20530;-69
2021/07/21 03:34:02;;;;;;;15.93;12.83;;;16.80;99.90;;;;;;6015612;23;20418;-69
2021/07/21 03:36:37;;;;;;;16.37;13.40;;;16.80;99.90;;;;;;6015846;23;20413;-69
2021/07/21 03:39:41;;;;;;;16.00;12.90;;;16.80;99.90;;;;;;6047975;23;20834;-70
2021/07/21 03:42:23;;;;;;;16.13;13.80;;;16.70;99.90;;;;;;6019435;23;20529;-69
2021/07/21 03:44:53;;;;;;;18.47;15.50;;;16.70;99.90;;;;;;6015794;23;20475;-69
2021/07/21 03:47:25;;;;;;;15.97;12.37;;;16.70;99.90;;;;;;6015404;23;20410;-69
2021/07/21 03:49:54;;;;;;;16.20;13.23;;;16.70;99.90;;;;;;6050571;23;20417;-69
2021/07/21 03:52:29;;;;;;;17.87;13.23;;;16.70;99.90;;;;;;6016368;23;20416;-69
2021/07/21 03:55:13;;;;;;;16.43;13.57;;;16.70;99.90;;;;;;6050430;23;20355;-69
2021/07/21 03:57:50;;;;;;;17.60;13.33;;;16.60;99.90;;;;;;6015835;23;20912;-69
2021/07/21 04:00:21;;;;;;;15.80;13.10;;;16.60;99.90;;;;;;6015133;23;20446;-69
2021/07/21 04:03:03;;;;;;;15.20;12.00;;;16.60;99.90;;;;;;6015187;23;20419;-69
2021/07/21 04:05:49;;;;;;;14.50;12.43;;;16.60;99.90;;;;;;6015287;23;20434;-69
2021/07/21 04:08:19;;;;;;;18.43;13.67;;;16.60;99.90;;;;;;6050153;23;20402;-69
2021/07/21 04:10:52;;;;;;;15.10;12.73;;;16.60;99.90;;;;;;6016147;23;20507;-69
2021/07/21 04:13:23;;;;;;;16.73;14.07;;;16.60;99.90;;;;;;6015157;23;20420;-69
2021/07/21 04:16:03;;;;;;;21.20;15.40;;;16.60;99.90;;;;;;6015535;23;20389;-69
2021/07/21 04:18:39;;;;;;;17.40;13.93;;;16.60;99.90;;;;;;6015841;23;20429;-69
2021/07/21 04:21:08;;;;;;;16.70;14.10;;;16.60;99.90;;;;;;6049950;23;20427;-69
2021/07/21 04:23:41;;;;;;;18.10;15.23;;;16.60;99.90;;;;;;6048859;23;20393;-69
2021/07/21 04:26:13;;;;;;;19.30;13.90;;;16.60;99.90;;;;;;6016064;23;20194;-69
2021/07/21 04:28:44;;;;;;;15.30;13.23;;;16.60;99.90;;;;;;6014976;23;20439;-69
2021/07/21 04:31:15;;;;;;;21.73;14.60;;;16.60;99.90;;;;;;6050075;23;20344;-69
2021/07/21 04:33:47;;;;;;;20.33;14.53;;;16.60;99.90;;;;;;6016943;23;20603;-69
2021/07/21 04:36:16;;;;;;;18.20;14.60;;;16.60;99.90;;;;;;6053939;23;20404;-69
2021/07/21 04:38:52;;;;;;;20.03;14.23;;;16.60;99.90;;;;;;6053930;23;20380;-69
2021/07/21 04:41:30;;;;;;;16.60;13.50;;;16.60;99.90;;;;;;6053749;23;20428;-69
2021/07/21 04:44:19;;;;;;;16.20;14.23;;;16.60;99.90;;;;;;6043796;23;20420;-69
2021/07/21 04:46:55;;;;;;;21.87;14.30;;;16.60;99.90;;;;;;6053712;23;20416;-69
2021/07/21 04:49:27;;;;;;;22.40;15.67;;;16.60;99.90;;;;;;6053710;23;20404;-69
2021/07/21 04:52:03;;;;;;;16.60;14.03;;;16.60;99.90;;;;;;6043870;23;20919;-69
2021/07/21 04:54:35;;;;;;;20.23;14.73;;;16.60;99.90;;;;;;6016968;23;20399;-69
2021/07/21 04:57:07;;;;;;;21.13;15.53;;;16.60;99.90;;;;;;6014847;23;20412;-69
2021/07/21 04:59:45;;;;;;;18.63;14.87;;;16.60;99.90;;;;;;6049359;23;20438;-69
2021/07/21 05:02:13;;;;;;;19.50;14.20;;;16.60;99.90;;;;;;6040021;23;20444;-69
2021/07/21 05:04:43;;;;;;;23.30;16.23;;;16.60;99.90;;;;;;6014638;23;20431;-69
2021/07/21 05:07:18;;;;;;;18.43;15.47;;;16.60;99.90;;;;;;6049157;23;20486;-69
2021/07/21 05:09:50;;;;;;;21.23;16.50;;;16.70;99.90;;;;;;6049600;23;20384;-69
2021/07/21 05:12:20;;;;;;;20.43;17.07;;;16.70;99.90;;;;;;6014899;23;20906;-69
2021/07/21 05:14:54;;;;;;;21.23;16.33;;;16.70;99.90;;;;;;6050126;23;20411;-70
2021/07/21 05:17:34;;;;;;;21.67;17.53;;;16.70;99.90;;;;;;6049577;23;20362;-69
2021/07/21 05:20:10;;;;;;;20.30;16.10;;;16.70;99.90;;;;;;6014367;23;20423;-69
2021/07/21 05:22:51;;;;;;;22.77;17.73;;;16.80;99.90;;;;;;6014634;23;20424;-70
2021/07/21 05:25:20;;;;;;;21.73;15.50;;;16.80;99.90;;;;;;6014029;23;20426;-70
2021/07/21 05:28:07;;;;;;;20.80;16.80;;;16.80;99.90;;;;;;6039820;23;20807;-70
2021/07/21 05:30:36;;;;;;;17.97;14.37;;;16.90;99.90;;;;;;6014458;23;20443;-70
2021/07/21 05:33:09;;;;;;;21.80;15.60;;;16.90;99.90;;;;;;6015296;23;20432;-70
2021/07/21 05:35:38;;;;;;;19.33;16.00;;;16.90;99.90;;;;;;6049282;23;20403;-73
2021/07/21 05:38:16;;;;;;;19.10;15.10;;;17.00;99.90;;;;;;6014723;23;20414;-70
2021/07/21 05:40:44;;;;;;;18.70;14.70;;;17.00;99.90;;;;;;6049246;23;20407;-70
2021/07/21 05:43:30;;;;;;;20.00;15.03;;;17.10;99.90;;;;;;6015310;23;20234;-71
2021/07/21 05:46:05;;;;;;;17.97;14.40;;;17.10;99.90;;;;;;6014486;23;20478;-71
2021/07/21 05:48:43;;;;;;;17.63;13.87;;;17.10;99.90;;;;;;6049405;23;20402;-71
2021/07/21 05:51:21;;;;;;;21.88;16.00;;;17.20;99.90;;;;;;6048548;23;20410;-71
2021/07/21 05:53:55;;;;;;;19.93;15.17;;;17.30;99.90;;;;;;6015288;23;20176;-71
2021/07/21 05:56:26;;;;;;;17.23;14.20;;;17.30;99.90;;;;;;6014773;23;20452;-70
2021/07/21 05:58:59;;;;;;;21.43;14.37;;;17.30;99.90;;;;;;6014935;23;20931;-71
2021/07/21 06:01:32;;;;;;;20.33;15.67;;;17.40;99.90;;;;;;6015028;23;20444;-71
2021/07/21 06:04:02;;;;;;;20.00;14.87;;;17.40;99.90;;;;;;6014695;23;20404;-71
2021/07/21 06:06:35;;;;;;;20.43;14.77;;;17.40;99.90;;;;;;6049498;23;20363;-70
2021/07/21 06:09:27;;;;;;;18.60;14.73;;;17.50;99.90;;;;;;6048887;23;20444;-70
2021/07/21 06:12:07;;;;;;;17.80;14.70;;;17.50;99.90;;;;;;6014657;23;20451;-70
2021/07/21 06:14:36;;;;;;;17.40;13.70;;;17.50;99.90;;;;;;6051070;23;20400;-70
2021/07/21 06:17:05;;;;;;;19.20;14.60;;;17.60;99.90;;;;;;6041766;23;20416;-70
2021/07/21 06:19:52;;;;;;;17.40;13.77;;;17.60;99.90;;;;;;6041937;23;20388;-70
2021/07/21 06:22:25;;;;;;;15.17;12.60;;;17.60;99.90;;;;;;6016365;23;20431;-70
2021/07/21 06:24:55;;;;;;;18.90;13.10;;;17.60;99.90;;;;;;6041769;23;20389;-70
2021/07/21 06:27:38;;;;;;;17.97;13.30;;;17.70;99.90;;;;;;6017245;23;20408;-70
2021/07/21 06:30:09;;;;;;;17.00;13.00;;;17.70;99.90;;;;;;6016119;23;20425;-70
2021/07/21 06:32:40;;;;;;;17.67;13.53;;;17.70;99.90;;;;;;6016091;23;20499;-70
2021/07/21 06:35:10;;;;;;;17.80;13.50;;;17.70;99.90;;;;;;6016200;23;20440;-70
2021/07/21 06:37:41;;;;;;;17.67;13.97;;;17.70;99.90;;;;;;6016868;23;20444;-70
2021/07/21 06:40:13;;;;;;;18.50;13.10;;;17.80;99.90;;;;;;6051016;23;20828;-70
2021/07/21 06:42:42;;;;;;;15.13;12.83;;;17.80;99.90;;;;;;6016274;23;20432;-70
2021/07/21 06:45:11;;;;;;;16.50;13.23;;;17.80;99.90;;;;;;6016228;23;20416;-70
2021/07/21 06:47:46;;;;;;;17.30;13.47;;;17.90;99.90;;;;;;6041449;23;20431;-70
2021/07/21 06:50:33;;;;;;;14.03;11.60;;;17.80;99.90;;;;;;6016016;23;20439;-70
2021/07/21 06:53:03;;;;;;;15.87;12.87;;;17.90;99.90;;;;;;6050647;23;20495;-70
2021/07/21 06:55:54;;;;;;;16.13;11.90;;;17.90;99.90;;;;;;6040384;23;20906;-70
2021/07/21 06:58:23;;;;;;;14.70;12.50;;;17.90;99.90;;;;;;6050603;23;20440;-70
2021/07/21 07:00:58;;;;;;;14.70;12.77;;;18.00;99.90;;;;;;6050699;23;20427;-71
2021/07/21 07:03:44;;;;;;;15.68;12.48;;;18.00;99.90;;;;;;6040428;23;20397;-71
2021/07/21 07:06:31;;;;;;;16.50;12.23;;;18.10;99.90;;;;;;6040906;23;20200;-71
2021/07/21 07:09:29;;;;;;;15.37;12.57;;;18.10;99.90;;;;;;6040481;23;20436;-71
2021/07/21 07:12:15;;;;;;;15.97;12.13;;;18.20;99.90;;;;;;6016221;23;20542;-71
2021/07/21 07:14:44;;;;;;;15.43;12.30;;;18.20;99.90;;;;;;6050690;23;20880;-71
2021/07/21 07:17:12;;;;;;;16.10;11.50;;;18.20;99.90;;;;;;6050845;23;20404;-71
2021/07/21 07:19:40;;;;;;;15.30;11.37;;;18.20;99.90;;;;;;6041192;23;20468;-69
2021/07/21 07:22:09;;;;;;;16.43;13.37;;;18.30;99.90;;;;;;6050903;23;20456;-69
2021/07/21 07:24:39;;;;;;;15.57;13.30;;;18.30;99.90;;;;;;6050617;23;20405;-69
2021/07/21 07:27:07;;;;;;;15.97;13.70;;;18.40;99.90;;;;;;6015656;23;20405;-69
2021/07/21 07:29:36;;;;;;;16.60;13.70;;;18.40;99.90;;;;;;6050278;23;20455;-69
2021/07/21 07:32:04;;;;;;;18.37;13.70;;;18.40;99.90;;;;;;6050346;23;20426;-69
2021/07/21 07:34:32;;;;;;;17.40;14.80;;;18.40;99.90;;;;;;6050501;23;20416;-69
2021/07/21 07:37:00;;;;;;;15.83;12.50;;;18.50;99.90;;;;;;6050485;23;20401;-69
2021/07/21 07:39:29;;;;;;;18.27;12.63;;;18.50;99.90;;;;;;6015572;23;20421;-69
2021/07/21 07:42:00;;;;;;;20.40;16.93;;;18.50;99.90;;;;;;6015393;23;20967;-69
2021/07/21 07:44:28;;;;;;;20.60;15.70;;;18.60;99.90;;;;;;6050232;23;20457;-69
2021/07/21 07:46:56;;;;;;;19.40;14.57;;;18.60;99.90;;;;;;6050320;23;20411;-69
2021/07/21 07:49:34;;;;;;;17.90;14.63;;;18.70;99.90;;;;;;6050652;23;20472;-69
2021/07/21 07:52:02;;;;;;;15.47;13.47;;;18.70;99.90;;;;;;6050190;23;20426;-69
2021/07/21 07:54:30;;;;;;;17.20;15.20;;;18.80;99.90;;;;;;6050770;23;20405;-69
2021/07/21 07:57:00;;;;;;;18.00;14.73;;;18.80;99.90;;;;;;6050466;23;20403;-69
2021/07/21 07:59:28;;;;;;;15.23;13.50;;;18.90;99.90;;;;;;6050210;23;20705;-69
2021/07/21 08:01:58;;;;;;;16.40;14.70;;;19.00;99.90;;;;;;6050570;23;20460;-69
2021/07/21 08:04:26;;;;;;;14.13;12.23;;;19.00;99.90;;;;;;6050165;23;20427;-70
2021/07/21 08:06:54;;;;;;;14.87;12.43;;;19.00;99.90;;;;;;6049959;23;20432;-70
2021/07/21 08:09:23;;;;;;;13.70;12.20;;;19.10;99.90;;;;;;6040559;23;20447;-69
2021/07/21 08:11:52;;;;;;;16.50;12.07;;;19.20;99.90;;;;;;6040974;23;20440;-70
2021/07/21 08:14:22;;;;;;;12.33;10.40;;;19.30;99.90;;;;;;6050632;23;20409;-69
2021/07/21 08:16:51;;;;;;;14.13;10.65;;;19.30;99.90;;;;;;6050565;23;20871;-69
2021/07/21 08:19:20;;;;;;;12.23;10.17;;;19.50;99.90;;;;;;6015874;23;20259;-70
2021/07/21 08:21:49;;;;;;;10.67;9.20;;;19.70;99.90;;;;;;6050942;23;20464;-70
2021/07/21 08:24:19;;;;;;;9.90;8.83;;;19.80;99.90;;;;;;6050565;23;20460;-70
2021/07/21 08:26:47;;;;;;;10.30;8.60;;;19.80;99.90;;;;;;6049627;23;20759;-73
2021/07/21 08:29:37;;;;;;;9.70;8.70;;;20.00;99.90;;;;;;6050247;23;20248;-72
2021/07/21 08:32:06;;;;;;;9.00;7.70;;;20.20;99.90;;;;;;6050368;23;20423;-72
2021/07/21 08:34:34;;;;;;;13.20;7.40;;;20.50;99.90;;;;;;6050895;23;20881;-73
2021/07/21 08:37:03;;;;;;;11.73;8.87;;;20.60;99.90;;;;;;6050352;23;20432;-72
2021/07/21 08:39:31;;;;;;;11.13;8.63;;;20.80;99.90;;;;;;6016077;23;20416;-72
2021/07/21 08:42:00;;;;;;;10.10;8.23;;;20.90;99.90;;;;;;6041085;23;20436;-72
2021/07/21 08:44:28;;;;;;;9.17;8.27;;;21.10;99.90;;;;;;6050648;23;20432;-72
2021/07/21 08:46:58;;;;;;;6.60;6.00;;;21.20;99.90;;;;;;6050514;23;20415;-72
2021/07/21 08:49:26;;;;;;;10.63;7.30;;;21.30;99.90;;;;;;6051227;23;20757;-72
2021/07/21 08:51:55;;;;;;;8.17;7.37;;;21.40;99.90;;;;;;6050880;23;20791;-72
2021/07/21 08:54:24;;;;;;;8.13;6.90;;;21.50;99.90;;;;;;6050816;23;20736;-72
2021/07/21 08:56:54;;;;;;;7.80;6.73;;;21.60;99.90;;;;;;6015904;23;20518;-72
2021/07/21 08:59:24;;;;;;;6.93;6.27;;;21.70;99.90;;;;;;6015835;23;20420;-72
2021/07/21 09:01:52;;;;;;;7.60;6.60;;;21.80;99.90;;;;;;6050702;23;20420;-72
2021/07/21 09:04:22;;;;;;;7.83;7.13;;;21.90;99.90;;;;;;6050403;23;20896;-72
2021/07/21 09:06:51;;;;;;;7.90;6.63;;;22.00;99.90;;;;;;6050948;23;20495;-72
2021/07/21 09:09:20;;;;;;;8.83;7.87;;;22.10;99.90;;;;;;6050559;23;20463;-72
2021/07/21 09:11:48;;;;;;;9.60;8.60;;;22.20;99.90;;;;;;6015470;23;20527;-72
2021/07/21 09:14:16;;;;;;;7.53;6.30;;;22.30;99.90;;;;;;6050759;23;20800;-72
2021/07/21 09:16:44;;;;;;;8.43;7.53;;;22.40;99.90;;;;;;6050559;23;20483;-72
2021/07/21 09:19:14;;;;;;;6.70;6.10;;;22.50;99.90;;;;;;6040918;23;20496;-72
2021/07/21 09:21:45;;;;;;;6.97;6.27;;;22.50;99.90;;;;;;6015300;23;20444;-72
2021/07/21 09:24:21;;;;;;;8.03;6.90;;;22.60;99.90;;;;;;6050244;23;20423;-72
2021/07/21 09:26:49;;;;;;;9.53;8.60;;;22.70;99.90;;;;;;6050899;23;20782;-72
2021/07/21 09:29:17;;;;;;;7.63;6.83;;;22.80;99.90;;;;;;6049230;23;20412;-72
2021/07/21 09:31:51;;;;;;;7.87;7.07;;;22.90;99.90;;;;;;6048359;23;20447;-72
2021/07/21 09:34:23;;;;;;;6.73;5.93;;;23.00;99.90;;;;;;6049260;23;20445;-72
2021/07/21 09:37:03;;;;;;;10.53;6.13;;;23.10;99.90;;;;;;6049524;23;20812;-72
2021/07/21 09:39:33;;;;;;;7.13;6.43;;;23.10;99.90;;;;;;6039700;23;20420;-72
2021/07/21 09:42:01;;;;;;;7.70;6.90;;;23.20;99.90;;;;;;6047924;23;20521;-72
2021/07/21 09:44:38;;;;;;;7.97;6.37;;;23.30;99.90;;;;;;6049470;23;20407;-72
2021/07/21 09:47:11;;;;;;;8.33;7.20;;;23.40;99.90;;;;;;6051453;23;20927;-72
2021/07/21 09:49:39;;;;;;;8.40;6.90;;;23.40;99.90;;;;;;6052961;23;20425;-72
2021/07/21 09:52:18;;;;;;;8.93;7.63;;;23.50;99.90;;;;;;6052255;23;20766;-72
2021/07/21 09:55:05;;;;;;;11.10;9.00;;;23.50;99.90;;;;;;6043151;23;20416;-72
2021/07/21 09:57:34;;;;;;;9.53;7.60;;;23.60;99.90;;;;;;6052582;23;20476;-72
2021/07/21 10:00:17;;;;;;;8.90;8.00;;;23.60;99.90;;;;;;6017453;23;20412;-72
2021/07/21 10:02:46;;;;;;;8.80;7.90;;;23.70;99.90;;;;;;6052589;23;20395;-73
2021/07/21 10:05:14;;;;;;;10.63;9.63;;;23.80;99.90;;;;;;6046222;23;20443;-72
2021/07/21 10:07:50;;;;;;;8.50;7.57;;;23.80;99.90;;;;;;6052817;23;20436;-72
2021/07/21 10:10:20;;;;;;;9.63;7.33;;;23.80;99.90;;;;;;6043250;23;20459;-72
2021/07/21 10:12:59;;;;;;;9.23;8.33;;;23.80;99.90;;;;;;6042928;23;20529;-72
2021/07/21 10:15:28;;;;;;;10.30;9.40;;;23.80;99.90;;;;;;6017555;23;20499;-73
2021/07/21 10:18:10;;;;;;;8.63;7.80;;;23.80;99.90;;;;;;6052180;23;20405;-72
2021/07/21 10:20:41;;;;;;;10.60;7.90;;;23.80;99.90;;;;;;6052439;23;20732;-72
2021/07/21 10:23:13;;;;;;;11.80;9.23;;;23.70;99.90;;;;;;6042951;23;20435;-72
2021/07/21 10:25:41;;;;;;;8.27;7.47;;;23.80;99.90;;;;;;6052203;23;20700;-71
2021/07/21 10:28:10;;;;;;;8.73;7.83;;;23.80;99.90;;;;;;6017523;23;20416;-73
2021/07/21 10:30:41;;;;;;;9.25;7.80;;;23.80;99.80;;;;;;6050866;23;20490;-73
2021/07/21 10:33:11;;;;;;;8.20;7.37;;;23.90;99.00;;;;;;6052099;23;20156;-73
2021/07/21 10:35:39;;;;;;;8.53;7.53;;;24.00;99.20;;;;;;6052103;23;20411;-73
2021/07/21 10:38:09;;;;;;;9.13;7.83;;;24.00;99.40;;;;;;6052148;23;20717;-74
2021/07/21 10:40:38;;;;;;;8.68;7.78;;;24.00;99.40;;;;;;6050391;23;20411;-74
2021/07/21 10:43:07;;;;;;;7.87;7.07;;;24.20;98.60;;;;;;6017398;23;20186;-73
2021/07/21 10:45:36;;;;;;;9.20;8.30;;;24.20;98.70;;;;;;6017373;23;20427;-73
2021/07/21 10:48:20;;;;;;;8.43;7.63;;;24.20;98.70;;;;;;6051990;23;20744;-73
2021/07/21 10:50:59;;;;;;;7.77;6.70;;;24.20;98.70;;;;;;6052082;23;20444;-73
2021/07/21 10:59:21;;;;;;;7.73;7.03;;;24.20;98.70;;;;;;6015924;23;20426;-73
2021/07/21 11:01:51;;;;;;;7.80;6.80;;;24.20;98.70;;;;;;6050561;23;20471;-76
2021/07/21 11:04:22;;;;;;;8.47;7.57;;;24.10;98.60;;;;;;6050666;23;20408;-73
2021/07/21 11:06:51;;;;;;;8.00;7.20;;;24.20;98.50;;;;;;6050908;23;20388;-73
2021/07/21 11:09:23;;;;;;;10.73;7.80;;;24.20;98.60;;;;;;6015838;23;20532;-73
2021/07/21 11:11:57;;;;;;;7.72;7.03;;;24.20;98.50;;;;;;6015640;23;20398;-73
2021/07/21 11:14:27;;;;;;;7.57;6.87;;;24.20;98.50;;;;;;6050905;23;20214;-72
2021/07/21 11:17:10;;;;;;;9.10;8.17;;;24.20;98.30;;;;;;6041332;23;20423;-72
2021/07/21 11:19:48;;;;;;;7.75;6.95;;;24.20;98.00;;;;;;6050726;23;20399;-73
2021/07/21 11:22:27;;;;;;;7.73;6.33;;;24.20;97.90;;;;;;6015573;23;20515;-72
2021/07/21 11:25:14;;;;;;;7.47;6.77;;;24.20;97.80;;;;;;6015696;23;20442;-73
2021/07/21 11:27:53;;;;;;;8.33;6.80;;;24.20;97.90;;;;;;6050407;23;20384;-72
2021/07/21 11:30:39;;;;;;;8.40;7.60;;;24.20;97.80;;;;;;6050464;23;20424;-72
2021/07/21 11:33:43;;;;;;;7.47;6.77;;;24.20;97.80;;;;;;6041372;23;20396;-72
2021/07/21 11:36:13;;;;;;;9.30;7.50;;;24.30;97.80;;;;;;6050447;23;20464;-73
2021/07/21 11:38:49;;;;;;;7.97;7.17;;;24.30;97.80;;;;;;6015493;23;20443;-73
2021/07/21 11:41:49;;;;;;;6.83;6.20;;;24.30;97.80;;;;;;6050429;23;20419;-73
2021/07/21 11:44:26;;;;;;;6.80;6.20;;;24.40;97.60;;;;;;6050494;23;20377;-72
2021/07/21 11:46:55;;;;;;;8.03;7.20;;;24.40;97.60;;;;;;6050087;23;20863;-73
2021/07/21 11:49:25;;;;;;;7.77;6.97;;;24.30;97.50;;;;;;6040794;23;20488;-73
2021/07/21 11:51:55;;;;;;;8.00;6.70;;;24.30;97.50;;;;;;6049819;23;20815;-73
2021/07/21 11:54:27;;;;;;;7.67;6.87;;;24.30;97.50;;;;;;6016883;23;20778;-72
2021/07/21 11:56:57;;;;;;;7.83;7.03;;;24.30;97.40;;;;;;6050661;23;20448;-72
2021/07/21 11:59:31;;;;;;;8.20;7.40;;;24.30;97.50;;;;;;6050130;23;20456;-73
2021/07/21 12:02:07;;;;;;;8.07;7.27;;;24.30;97.50;;;;;;6015197;23;20437;-73
2021/07/21 12:04:36;;;;;;;7.27;6.57;;;24.20;97.40;;;;;;6050120;23;20904;-72
2021/07/21 12:07:05;;;;;;;7.37;6.67;;;24.20;97.40;;;;;;6015354;23;20413;-71
2021/07/21 12:09:35;;;;;;;9.70;6.73;;;24.10;97.40;;;;;;6049331;23;20407;-72
2021/07/21 12:12:06;;;;;;;8.47;6.67;;;24.10;97.40;;;;;;6049671;23;20860;-72
2021/07/21 12:14:37;;;;;;;8.27;7.37;;;24.00;97.30;;;;;;6050191;23;20783;-72
2021/07/21 12:17:08;;;;;;;6.80;6.20;;;24.00;97.40;;;;;;6049817;23;20421;-72
2021/07/21 12:19:37;;;;;;;8.27;7.40;;;23.90;97.40;;;;;;6050400;23;20817;-72
2021/07/21 12:22:08;;;;;;;15.13;9.43;;;23.90;97.50;;;;;;6014868;23;20444;-72
2021/07/21 12:24:39;;;;;;;7.97;7.10;;;23.90;97.50;;;;;;6050509;23;20443;-71
2021/07/21 12:27:08;;;;;;;7.10;6.40;;;23.80;97.60;;;;;;6050038;23;20456;-71
2021/07/21 12:29:39;;;;;;;7.07;6.40;;;23.80;97.70;;;;;;6050408;23;20396;-73
2021/07/21 12:32:10;;;;;;;7.80;7.00;;;23.80;97.80;;;;;;6015032;23;20444;-72
2021/07/21 12:34:43;;;;;;;8.60;7.23;;;23.80;97.80;;;;;;6015134;23;20773;-73
2021/07/21 12:37:14;;;;;;;7.83;6.93;;;23.80;97.80;;;;;;6015102;23;20746;-74
2021/07/21 12:39:45;;;;;;;7.67;6.80;;;23.90;97.80;;;;;;6015006;23;20412;-73
2021/07/21 12:42:16;;;;;;;7.55;6.75;;;23.90;97.80;;;;;;6048357;23;20495;-71
2021/07/21 12:44:48;;;;;;;6.57;5.70;;;24.00;97.40;;;;;;6050114;23;20492;-72
2021/07/21 12:47:18;;;;;;;8.33;7.53;;;24.00;97.50;;;;;;6014936;23;20416;-72
2021/07/21 12:49:49;;;;;;;8.10;7.30;;;24.00;97.70;;;;;;6048828;23;20828;-71
2021/07/21 12:52:42;;;;;;;6.83;6.23;;;24.10;98.00;;;;;;6049703;23;20251;-71
2021/07/21 12:55:13;;;;;;;7.50;6.67;;;24.10;97.90;;;;;;6049715;23;20385;-72
2021/07/21 12:57:43;;;;;;;7.03;6.33;;;24.10;97.90;;;;;;6049812;23;20747;-71
2021/07/21 13:00:16;;;;;;;6.87;6.27;;;24.20;97.90;;;;;;6049796;23;20389;-71
2021/07/21 13:02:58;;;;;;;7.70;6.70;;;24.20;97.80;;;;;;6050112;23;20417;-71
2021/07/21 13:05:51;;;;;;;6.57;5.97;;;24.20;97.80;;;;;;6014319;23;20464;-70
2021/07/21 13:08:21;;;;;;;6.43;5.80;;;24.20;97.80;;;;;;6049427;23;20424;-71
2021/07/21 13:11:00;;;;;;;6.80;5.70;;;24.20;97.60;;;;;;6049553;23;20420;-71
2021/07/21 13:13:29;;;;;;;7.00;6.30;;;24.30;97.60;;;;;;6040100;23;20472;-71